Time;durP1;ratioP1;P1;durP2;ratioP2;P2;SDS_P1;SDS_P2;PMS_P1;PMS_P2;Temp;Humidity;BMP_temperature;BMP_pressure;BME280_temperature;BME280_humidity;BME280_pressure;Samples;Min_cycle;Max_cycle;Signal;HPM_P1;HPM_P2
2022/12/26 00:02:24;;;;;;;5.30;3.50;;;12.40;99.90;;;;;;4974647;28;20937;-76
2022/12/26 00:04:51;;;;;;;8.53;3.33;;;12.40;99.90;;;;;;4974704;28;20490;-77
2022/12/26 00:07:19;;;;;;;4.37;2.90;;;12.40;99.90;;;;;;4974776;28;20436;-76
2022/12/26 00:09:46;;;;;;;5.27;3.80;;;12.40;99.90;;;;;;4974648;28;20954;-76
2022/12/26 00:12:13;;;;;;;3.67;3.30;;;12.40;99.90;;;;;;4974613;28;20828;-76
2022/12/26 00:14:40;;;;;;;3.63;3.33;;;12.40;99.90;;;;;;4974882;28;20482;-76
2022/12/26 00:17:06;;;;;;;5.30;4.10;;;12.40;99.90;;;;;;4974476;28;20494;-76
2022/12/26 00:19:33;;;;;;;4.03;3.33;;;12.50;99.90;;;;;;4974439;28;20456;-76
2022/12/26 00:22:00;;;;;;;9.10;3.20;;;12.50;99.90;;;;;;4974182;28;20491;-76
2022/12/26 00:24:28;;;;;;;7.17;3.00;;;12.50;99.90;;;;;;4974412;28;20481;-77
2022/12/26 00:26:55;;;;;;;4.63;3.07;;;12.50;99.90;;;;;;4974294;28;20820;-76
2022/12/26 00:29:22;;;;;;;4.33;3.07;;;12.50;99.90;;;;;;4974359;28;20462;-76
2022/12/26 00:31:49;;;;;;;5.23;2.67;;;12.60;99.90;;;;;;4974203;28;20551;-77
2022/12/26 00:34:16;;;;;;;6.07;3.37;;;12.60;99.90;;;;;;4974466;28;20509;-76
2022/12/26 00:36:42;;;;;;;3.90;3.00;;;12.60;99.90;;;;;;4974268;28;20827;-77
2022/12/26 00:39:09;;;;;;;4.03;3.20;;;12.60;99.90;;;;;;4974411;28;20464;-76
2022/12/26 00:41:37;;;;;;;9.70;3.80;;;12.60;99.90;;;;;;4974259;28;20468;-76
2022/12/26 00:44:04;;;;;;;5.73;4.40;;;12.60;99.90;;;;;;4974168;28;20468;-76
2022/12/26 00:46:32;;;;;;;4.57;3.70;;;12.60;99.90;;;;;;4974275;28;20552;-76
2022/12/26 00:48:59;;;;;;;3.73;3.40;;;12.70;99.90;;;;;;4975827;28;20449;-76
2022/12/26 00:51:26;;;;;;;5.73;3.00;;;12.70;99.90;;;;;;4977673;28;20456;-76
2022/12/26 00:53:52;;;;;;;5.03;3.20;;;12.70;99.90;;;;;;4977333;28;20976;-76
2022/12/26 00:56:19;;;;;;;5.47;3.60;;;12.70;99.90;;;;;;4977577;28;20460;-76
2022/12/26 00:58:47;;;;;;;4.20;3.47;;;12.80;99.90;;;;;;4977216;28;20969;-76
2022/12/26 01:01:16;;;;;;;5.47;3.80;;;12.70;99.90;;;;;;4977642;28;20468;-76
2022/12/26 01:03:44;;;;;;;4.40;3.50;;;12.60;99.90;;;;;;4977173;28;20504;-76
2022/12/26 01:06:11;;;;;;;4.60;3.00;;;12.70;99.90;;;;;;4977921;28;20469;-76
2022/12/26 01:08:38;;;;;;;3.70;3.10;;;12.70;99.90;;;;;;4977770;28;20457;-76
2022/12/26 01:11:07;;;;;;;5.80;3.60;;;12.70;99.90;;;;;;4977418;28;20465;-76
2022/12/26 01:13:35;;;;;;;7.03;4.47;;;12.70;99.90;;;;;;4977857;28;20453;-76
2022/12/26 01:16:05;;;;;;;8.40;3.50;;;12.70;99.90;;;;;;4978311;28;20469;-76
2022/12/26 01:18:32;;;;;;;8.70;3.87;;;12.70;99.90;;;;;;4978332;28;20456;-76
2022/12/26 01:21:03;;;;;;;5.63;3.40;;;12.60;99.90;;;;;;4977225;28;20462;-77
2022/12/26 01:23:30;;;;;;;4.77;3.60;;;12.60;99.90;;;;;;4977139;28;20478;-77
2022/12/26 01:25:56;;;;;;;7.17;4.23;;;12.60;99.90;;;;;;4976806;28;21024;-76
2022/12/26 01:28:23;;;;;;;10.70;4.10;;;12.60;99.90;;;;;;4977171;28;20465;-77
2022/12/26 01:30:50;;;;;;;3.37;2.90;;;12.60;99.90;;;;;;4976789;28;20949;-76
2022/12/26 01:33:18;;;;;;;5.00;3.60;;;12.60;99.90;;;;;;4976751;28;20461;-77
2022/12/26 01:35:52;;;;;;;7.10;3.10;;;12.60;99.90;;;;;;4976762;28;20461;-76
2022/12/26 01:38:19;;;;;;;3.60;3.20;;;12.70;99.90;;;;;;4977012;28;20441;-76
2022/12/26 01:40:47;;;;;;;5.07;3.10;;;12.70;99.90;;;;;;4976842;28;20472;-77
2022/12/26 01:43:15;;;;;;;6.53;3.97;;;12.60;99.90;;;;;;4977014;28;20493;-77
2022/12/26 01:45:45;;;;;;;5.50;3.73;;;12.60;99.90;;;;;;4987536;28;20492;-77
2022/12/26 01:48:19;;;;;;;7.10;4.17;;;12.60;99.90;;;;;;5001827;28;20433;-77
2022/12/26 01:50:51;;;;;;;6.67;3.30;;;12.70;99.90;;;;;;4985020;28;20474;-77
2022/12/26 01:53:22;;;;;;;4.97;3.33;;;12.60;99.90;;;;;;4982861;28;20809;-77
2022/12/26 01:55:54;;;;;;;4.27;3.40;;;12.60;99.90;;;;;;4982794;28;20469;-77
2022/12/26 01:58:25;;;;;;;6.40;3.87;;;12.50;99.90;;;;;;4982808;28;20856;-78
2022/12/26 02:00:52;;;;;;;8.90;3.90;;;12.50;99.90;;;;;;4982514;28;20925;-78
2022/12/26 02:06:05;;;;;;;6.70;3.60;;;12.50;99.90;;;;;;4985279;28;20500;-77
2022/12/26 02:08:35;;;;;;;6.03;4.20;;;12.50;99.90;;;;;;4984508;28;20471;-77
2022/12/26 02:11:10;;;;;;;8.97;3.97;;;12.50;99.90;;;;;;4984250;28;20457;-77
2022/12/26 02:13:38;;;;;;;7.43;3.80;;;12.50;99.90;;;;;;4983933;28;20429;-78
2022/12/26 02:16:07;;;;;;;3.97;3.30;;;12.50;99.90;;;;;;4981463;28;20484;-78
2022/12/26 02:18:37;;;;;;;4.90;3.50;;;12.50;99.90;;;;;;4983241;28;20450;-78
2022/12/26 02:21:24;;;;;;;3.83;3.23;;;12.40;99.90;;;;;;4983629;28;20916;-78
2022/12/26 02:24:14;;;;;;;5.57;4.37;;;12.40;99.90;;;;;;4983558;28;20481;-77
2022/12/26 02:27:10;;;;;;;3.37;2.80;;;12.30;99.90;;;;;;4983170;28;20417;-78
2022/12/26 02:30:07;;;;;;;4.57;2.57;;;12.30;99.90;;;;;;4981707;28;20425;-77
2022/12/26 02:33:05;;;;;;;2.60;2.40;;;12.20;99.90;;;;;;4981780;28;20457;-77
2022/12/26 02:35:47;;;;;;;3.93;3.00;;;12.20;99.90;;;;;;4972768;28;20489;-77
2022/12/26 02:38:28;;;;;;;3.10;2.80;;;12.20;99.90;;;;;;4980394;28;20438;-76
2022/12/26 02:41:03;;;;;;;5.07;3.13;;;12.20;99.90;;;;;;4979345;28;20441;-76
2022/12/26 02:43:40;;;;;;;5.67;3.30;;;12.10;99.90;;;;;;4978900;28;20473;-76
2022/12/26 02:49:12;;;;;;;5.03;3.37;;;12.10;99.90;;;;;;4978677;28;20432;-76
2022/12/26 03:14:26;;;;;;;4.07;3.60;;;12.10;99.90;;;;;;4976672;28;20479;-76
2022/12/26 03:19:59;;;;;;;3.30;3.00;;;12.10;99.90;;;;;;4976059;28;20796;-76
2022/12/26 03:22:34;;;;;;;4.77;3.10;;;12.20;99.90;;;;;;4976030;28;20475;-76
2022/12/26 03:27:53;;;;;;;4.60;4.10;;;12.20;99.90;;;;;;4966577;28;20908;-76
2022/12/26 03:34:15;;;;;;;5.20;4.07;;;12.20;99.90;;;;;;4975717;28;20810;-77
2022/12/26 03:35:51;;;;;;;5.20;4.70;;;12.20;99.90;;;;;;4974812;28;20469;-76
2022/12/26 03:38:25;;;;;;;5.17;4.67;;;12.20;99.90;;;;;;4975161;28;20448;-76
2022/12/26 04:44:06;;;;;;;6.77;6.00;;;11.70;99.90;;;;;;4978525;28;21003;-76
2022/12/26 04:46:38;;;;;;;6.40;5.80;;;11.70;99.90;;;;;;4978618;28;20476;-77
2022/12/26 04:51:51;;;;;;;10.43;5.33;;;11.70;99.90;;;;;;4977553;28;20470;-76
2022/12/26 04:54:19;;;;;;;6.67;6.07;;;11.70;99.90;;;;;;4977590;28;20822;-76
2022/12/26 04:56:45;;;;;;;5.40;4.90;;;11.80;99.90;;;;;;4977620;28;20510;-76
2022/12/26 04:59:12;;;;;;;5.87;5.37;;;11.70;99.90;;;;;;4977844;28;20461;-76
2022/12/26 05:09:59;;;;;;;6.40;5.80;;;11.80;99.90;;;;;;4977634;28;20405;-76
2022/12/26 05:12:26;;;;;;;5.67;5.17;;;11.80;99.90;;;;;;4977166;28;20450;-76
2022/12/26 05:14:53;;;;;;;5.37;4.90;;;11.80;99.90;;;;;;4977501;28;20469;-76
2022/12/26 05:28:41;;;;;;;5.70;5.17;;;11.90;99.90;;;;;;4936455;29;20483;-76
2022/12/26 05:31:08;;;;;;;5.10;4.70;;;11.90;99.90;;;;;;4936300;29;20451;-76
2022/12/26 05:36:23;;;;;;;5.40;4.90;;;11.80;99.90;;;;;;4977087;28;20418;-76
2022/12/26 05:38:50;;;;;;;6.17;4.83;;;11.80;99.90;;;;;;4977034;28;20473;-76
2022/12/26 05:41:17;;;;;;;4.80;4.40;;;11.80;99.90;;;;;;4976899;28;20449;-76
2022/12/26 05:43:44;;;;;;;6.77;5.27;;;11.90;99.90;;;;;;4976775;28;20492;-76
2022/12/26 05:46:11;;;;;;;4.80;4.40;;;11.90;99.90;;;;;;4976739;28;20477;-76
2022/12/26 05:48:39;;;;;;;5.97;5.10;;;11.90;99.90;;;;;;4977021;28;20453;-76
2022/12/26 05:51:06;;;;;;;5.60;4.37;;;12.00;99.90;;;;;;4976936;28;20457;-77
2022/12/26 05:53:33;;;;;;;5.47;4.97;;;12.00;99.90;;;;;;4976808;28;20453;-77
2022/12/26 05:56:04;;;;;;;7.37;4.67;;;12.10;99.90;;;;;;4976494;28;20478;-76
2022/12/26 05:58:30;;;;;;;6.37;4.90;;;12.10;99.90;;;;;;4976640;28;20491;-76
2022/12/26 06:01:05;;;;;;;4.70;4.30;;;12.10;99.90;;;;;;4976534;28;20461;-76
2022/12/26 06:03:31;;;;;;;8.90;5.10;;;12.20;99.90;;;;;;4976454;28;20473;-76
2022/12/26 06:05:59;;;;;;;5.20;4.70;;;12.10;99.90;;;;;;4976806;28;20473;-76
2022/12/26 06:08:26;;;;;;;5.83;4.37;;;12.00;99.90;;;;;;4976678;28;20454;-76
2022/12/26 06:10:53;;;;;;;5.50;4.33;;;12.10;99.90;;;;;;4976074;28;20829;-77
2022/12/26 06:13:20;;;;;;;4.63;4.00;;;12.10;99.90;;;;;;4976441;28;20453;-77
2022/12/26 06:15:46;;;;;;;4.87;3.50;;;12.10;99.90;;;;;;4976273;28;20480;-77
2022/12/26 06:18:13;;;;;;;5.80;3.20;;;12.10;99.90;;;;;;4979441;28;20454;-77
2022/12/26 06:20:40;;;;;;;4.37;2.83;;;12.00;99.90;;;;;;4990794;28;20457;-76
2022/12/26 06:23:09;;;;;;;6.53;2.83;;;12.10;99.90;;;;;;4988485;28;20457;-76
2022/12/26 06:25:35;;;;;;;4.20;2.77;;;12.00;99.90;;;;;;4987221;28;21005;-76
2022/12/26 06:28:02;;;;;;;2.60;2.23;;;11.90;99.90;;;;;;4980382;28;20461;-76
2022/12/26 06:30:29;;;;;;;2.33;2.13;;;11.90;99.90;;;;;;4975702;28;20829;-77
2022/12/26 06:32:55;;;;;;;4.40;2.50;;;11.90;99.90;;;;;;4975512;28;20516;-76
2022/12/26 06:35:22;;;;;;;1.37;1.27;;;11.80;99.90;;;;;;4975865;28;20473;-76
2022/12/26 06:37:49;;;;;;;2.60;1.80;;;11.80;99.90;;;;;;4975431;28;20949;-76
2022/12/26 06:40:17;;;;;;;2.57;1.90;;;11.80;99.90;;;;;;4975848;28;20471;-77
2022/12/26 06:42:44;;;;;;;3.33;2.03;;;11.80;99.90;;;;;;4975745;28;20464;-76
2022/12/26 06:45:11;;;;;;;1.53;1.43;;;11.80;99.90;;;;;;4975393;28;20497;-76
2022/12/26 06:47:37;;;;;;;2.00;1.77;;;11.90;99.90;;;;;;4974991;28;20480;-76
2022/12/26 06:50:05;;;;;;;3.77;1.43;;;11.90;99.90;;;;;;4975695;28;20453;-76
2022/12/26 06:52:31;;;;;;;1.80;1.50;;;11.80;99.90;;;;;;4975625;28;20460;-76
2022/12/26 06:54:58;;;;;;;4.07;2.00;;;11.90;99.90;;;;;;4975407;28;20472;-76
2022/12/26 06:57:26;;;;;;;2.67;2.37;;;11.80;99.90;;;;;;4976356;28;20500;-76
2022/12/26 06:59:54;;;;;;;2.77;2.20;;;11.80;99.90;;;;;;4975460;28;20453;-77
2022/12/26 07:02:21;;;;;;;4.70;2.60;;;11.80;99.90;;;;;;4975431;28;20445;-76
2022/12/26 07:04:47;;;;;;;2.23;2.00;;;11.80;99.90;;;;;;4975307;28;20496;-76
2022/12/26 07:07:14;;;;;;;2.47;2.27;;;11.80;99.90;;;;;;4974989;28;20970;-76
2022/12/26 07:09:41;;;;;;;2.20;2.00;;;11.80;99.90;;;;;;4975531;28;20465;-76
2022/12/26 07:12:07;;;;;;;2.13;1.90;;;11.80;99.90;;;;;;4975604;28;20483;-77
2022/12/26 07:14:36;;;;;;;1.93;1.83;;;11.80;99.90;;;;;;4975996;28;20473;-76
2022/12/26 07:17:03;;;;;;;1.50;1.40;;;11.80;99.90;;;;;;4975853;28;20455;-76
2022/12/26 07:19:29;;;;;;;1.87;1.40;;;11.70;99.90;;;;;;4976398;28;20471;-76
2022/12/26 07:21:56;;;;;;;1.30;1.20;;;11.70;99.90;;;;;;4975781;28;20461;-77
2022/12/26 07:24:23;;;;;;;1.83;1.27;;;11.70;99.90;;;;;;4975012;28;20908;-76
2022/12/26 07:26:50;;;;;;;1.60;0.80;;;11.60;99.90;;;;;;4975072;28;20460;-76
2022/12/26 07:29:17;;;;;;;1.17;0.70;;;11.60;99.90;;;;;;4974654;28;20492;-76
2022/12/26 07:31:45;;;;;;;0.90;0.77;;;11.60;99.90;;;;;;4974713;28;20494;-76
2022/12/26 07:34:13;;;;;;;1.47;0.60;;;11.50;99.90;;;;;;4975104;28;20477;-76
2022/12/26 07:36:40;;;;;;;0.90;0.70;;;11.50;99.90;;;;;;4974507;28;20843;-76
2022/12/26 07:39:08;;;;;;;1.37;0.60;;;11.40;99.90;;;;;;4974876;28;20472;-76
2022/12/26 07:44:19;;;;;;;1.27;0.63;;;11.30;99.90;;;;;;4975066;28;20973;-76
2022/12/26 07:46:47;;;;;;;1.10;0.73;;;11.30;99.90;;;;;;4975158;28;20452;-76
2022/12/26 07:49:14;;;;;;;0.90;0.60;;;11.30;99.90;;;;;;4974462;28;20459;-76
2022/12/26 07:51:42;;;;;;;1.63;1.00;;;11.30;99.90;;;;;;4974826;28;20891;-76
2022/12/26 07:54:09;;;;;;;2.00;0.97;;;11.30;99.90;;;;;;4975390;28;20477;-76
2022/12/26 07:56:35;;;;;;;0.93;0.80;;;11.20;99.90;;;;;;4974917;28;20460;-76
2022/12/26 07:59:02;;;;;;;1.43;0.90;;;11.30;99.90;;;;;;4978243;28;20445;-76
2022/12/26 08:01:29;;;;;;;0.87;0.87;;;11.30;99.90;;;;;;4978935;28;20462;-76
2022/12/26 08:03:57;;;;;;;2.90;1.00;;;11.30;99.90;;;;;;4978499;28;20495;-76
2022/12/26 08:06:24;;;;;;;2.13;0.93;;;11.30;99.90;;;;;;4978712;28;20449;-77
2022/12/26 08:08:50;;;;;;;1.20;1.00;;;11.40;99.90;;;;;;4978188;28;20968;-76
2022/12/26 08:11:20;;;;;;;3.43;1.00;;;11.40;99.90;;;;;;4978532;28;20482;-76
2022/12/26 08:13:46;;;;;;;1.07;0.97;;;11.40;99.90;;;;;;4978629;28;20449;-76
2022/12/26 08:16:15;;;;;;;2.90;0.87;;;11.40;99.90;;;;;;4978476;28;20464;-76
2022/12/26 08:18:42;;;;;;;3.37;1.17;;;11.50;99.90;;;;;;4978360;28;20467;-76
2022/12/26 08:21:11;;;;;;;0.83;0.70;;;11.40;99.90;;;;;;4977984;28;20814;-76
2022/12/26 08:23:38;;;;;;;1.37;0.77;;;11.40;99.90;;;;;;4978362;28;20476;-77
2022/12/26 08:26:06;;;;;;;1.07;0.80;;;11.40;99.90;;;;;;4978421;28;20481;-76
2022/12/26 08:28:32;;;;;;;2.53;1.30;;;11.40;99.90;;;;;;4978208;28;20467;-76
2022/12/26 08:30:59;;;;;;;1.20;1.10;;;11.40;99.90;;;;;;4977850;28;20962;-76
2022/12/26 08:33:26;;;;;;;1.70;1.00;;;11.50;99.90;;;;;;4977777;28;20464;-76
2022/12/26 08:35:53;;;;;;;2.63;0.80;;;11.50;99.90;;;;;;4978145;28;20469;-76
2022/12/26 08:38:21;;;;;;;3.03;0.90;;;11.40;99.90;;;;;;4978012;28;20464;-77
2022/12/26 08:40:55;;;;;;;1.17;1.07;;;11.40;99.90;;;;;;4977909;28;20459;-76
2022/12/26 08:43:22;;;;;;;1.30;1.10;;;11.40;99.90;;;;;;4978630;28;20476;-76
2022/12/26 08:45:56;;;;;;;1.40;1.00;;;11.50;99.90;;;;;;4979676;28;20497;-76
2022/12/26 08:48:23;;;;;;;1.63;1.17;;;11.50;99.90;;;;;;4978434;28;20450;-76
2022/12/26 08:50:55;;;;;;;0.90;0.90;;;11.50;99.90;;;;;;4978298;28;20462;-77
2022/12/26 08:53:24;;;;;;;1.47;1.37;;;11.60;99.90;;;;;;4978520;28;20448;-76
2022/12/26 08:55:51;;;;;;;5.47;2.10;;;11.50;99.90;;;;;;4977252;28;20484;-76
2022/12/26 08:58:17;;;;;;;2.30;1.63;;;11.60;99.90;;;;;;4978138;28;20464;-77
2022/12/26 09:00:44;;;;;;;3.43;1.00;;;11.60;99.90;;;;;;4977575;28;20832;-76
2022/12/26 09:03:11;;;;;;;2.50;1.20;;;11.60;99.90;;;;;;4977993;28;20464;-76
2022/12/26 09:05:38;;;;;;;2.87;1.20;;;11.60;99.90;;;;;;4977838;28;20485;-76
2022/12/26 09:08:05;;;;;;;1.33;1.20;;;11.50;99.90;;;;;;4977472;28;20464;-77
2022/12/26 09:10:33;;;;;;;1.70;1.10;;;11.60;99.90;;;;;;4976170;28;20456;-76
2022/12/26 09:12:59;;;;;;;2.93;1.20;;;11.60;99.90;;;;;;4977378;28;20953;-76
2022/12/26 09:15:26;;;;;;;1.23;1.13;;;11.50;99.90;;;;;;4978345;28;20476;-76
2022/12/26 09:17:53;;;;;;;2.50;1.27;;;11.60;99.90;;;;;;4978384;28;20453;-76
2022/12/26 09:20:20;;;;;;;1.80;1.00;;;11.60;99.90;;;;;;4978050;28;20457;-76
2022/12/26 09:22:53;;;;;;;2.83;1.30;;;11.50;99.90;;;;;;4978256;28;20934;-76
2022/12/26 09:25:22;;;;;;;1.23;1.00;;;11.50;99.90;;;;;;4978698;28;20499;-76
2022/12/26 09:27:52;;;;;;;5.20;1.13;;;11.60;99.90;;;;;;4978384;28;20457;-76
2022/12/26 09:30:19;;;;;;;4.10;1.10;;;11.50;99.90;;;;;;4977243;28;20476;-77
2022/12/26 09:32:46;;;;;;;1.93;1.17;;;11.50;99.90;;;;;;4976874;28;20493;-76
2022/12/26 09:35:13;;;;;;;3.07;1.40;;;11.60;99.90;;;;;;4976911;28;20477;-76
2022/12/26 09:37:40;;;;;;;2.10;1.47;;;11.60;99.90;;;;;;4976823;28;20454;-76
2022/12/26 09:40:18;;;;;;;2.80;1.30;;;11.70;99.90;;;;;;4976758;28;20464;-76
2022/12/26 09:42:58;;;;;;;3.20;1.47;;;11.70;99.90;;;;;;4976511;28;20918;-76
2022/12/26 09:45:32;;;;;;;3.53;1.30;;;11.70;99.90;;;;;;4977737;28;20500;-76
2022/12/26 09:48:06;;;;;;;1.70;1.27;;;11.70;99.90;;;;;;4976755;28;20440;-76
2022/12/26 09:50:36;;;;;;;3.80;1.30;;;11.80;99.90;;;;;;4977550;28;20449;-76
2022/12/26 09:53:06;;;;;;;5.57;1.00;;;11.80;99.90;;;;;;4976950;28;20445;-76
2022/12/26 09:55:39;;;;;;;1.43;0.90;;;11.80;99.90;;;;;;4976730;28;20473;-76
2022/12/26 09:58:17;;;;;;;5.83;1.33;;;11.80;99.90;;;;;;4976583;28;20442;-76
2022/12/26 10:00:48;;;;;;;2.50;1.00;;;11.90;99.90;;;;;;4976632;28;20923;-76
2022/12/26 10:03:15;;;;;;;4.70;1.13;;;11.90;99.90;;;;;;4979381;28;20438;-76
2022/12/26 10:05:55;;;;;;;3.90;1.20;;;11.90;99.90;;;;;;4977171;28;20497;-76
2022/12/26 10:08:28;;;;;;;1.50;1.10;;;11.90;99.90;;;;;;4976678;28;20449;-76
2022/12/26 10:11:07;;;;;;;3.03;0.87;;;11.90;99.90;;;;;;4978169;28;20457;-77
2022/12/26 10:13:41;;;;;;;1.53;1.03;;;11.90;99.90;;;;;;4979003;28;20438;-76
2022/12/26 10:16:15;;;;;;;4.90;1.13;;;11.90;99.90;;;;;;4976839;28;20465;-76
2022/12/26 10:18:53;;;;;;;2.70;0.97;;;11.90;99.90;;;;;;4977660;28;20446;-76
2022/12/26 10:21:38;;;;;;;1.33;0.80;;;11.90;99.90;;;;;;4976691;28;20823;-76
2022/12/26 10:24:12;;;;;;;1.90;1.00;;;11.90;99.90;;;;;;4976496;28;20476;-76
2022/12/26 10:26:42;;;;;;;1.77;0.97;;;11.90;99.90;;;;;;4977639;28;20448;-76
2022/12/26 10:29:18;;;;;;;1.17;0.80;;;11.90;99.90;;;;;;4976034;28;20445;-76
2022/12/26 10:31:49;;;;;;;2.50;0.87;;;12.00;99.90;;;;;;4976140;28;20469;-76
2022/12/26 10:34:19;;;;;;;4.63;1.20;;;12.00;99.90;;;;;;4976681;28;20473;-77
2022/12/26 10:36:49;;;;;;;1.80;0.93;;;11.90;99.90;;;;;;4976435;28;20448;-76
2022/12/26 10:39:22;;;;;;;1.97;1.30;;;11.90;99.90;;;;;;4977195;28;20460;-76
2022/12/26 10:41:52;;;;;;;4.43;1.43;;;12.00;99.90;;;;;;4978511;28;20464;-76
2022/12/26 10:44:20;;;;;;;2.20;1.00;;;11.90;99.90;;;;;;4976588;28;20572;-76
2022/12/26 10:47:15;;;;;;;2.53;1.30;;;11.90;99.90;;;;;;4976538;28;20469;-76
2022/12/26 10:49:44;;;;;;;3.57;1.07;;;11.90;99.90;;;;;;4976090;28;20437;-75
2022/12/26 10:52:13;;;;;;;3.50;1.27;;;11.90;99.90;;;;;;4977803;28;20458;-76
2022/12/26 10:54:40;;;;;;;4.10;1.60;;;11.80;99.90;;;;;;4977162;28;20997;-76
2022/12/26 10:57:10;;;;;;;2.17;1.00;;;11.90;99.90;;;;;;4975926;28;20980;-76
2022/12/26 10:59:42;;;;;;;5.23;1.20;;;11.90;99.90;;;;;;4976422;28;20446;-76
2022/12/26 11:02:24;;;;;;;1.87;1.43;;;11.90;99.90;;;;;;4977773;28;21023;-78
2022/12/26 11:04:59;;;;;;;3.77;1.60;;;11.90;99.90;;;;;;4986994;28;20485;-77
2022/12/26 11:07:29;;;;;;;3.60;1.23;;;11.90;99.90;;;;;;4988224;28;20464;-77
2022/12/26 11:09:58;;;;;;;3.20;0.80;;;11.90;99.90;;;;;;4991749;28;20453;-76
2022/12/26 11:12:28;;;;;;;3.97;1.03;;;11.90;99.90;;;;;;4985904;28;20437;-77
2022/12/26 11:15:00;;;;;;;1.20;0.80;;;11.90;99.90;;;;;;4978008;28;20477;-77
2022/12/26 11:17:29;;;;;;;3.80;1.30;;;11.90;99.90;;;;;;4977763;28;20942;-77
2022/12/26 11:20:23;;;;;;;5.53;1.23;;;11.90;99.90;;;;;;4977342;28;20532;-77
2022/12/26 11:22:51;;;;;;;3.33;0.73;;;11.80;99.60;;;;;;4977144;28;20456;-76
2022/12/26 11:25:21;;;;;;;4.73;1.23;;;11.90;99.90;;;;;;4976910;28;20547;-77
2022/12/26 11:27:50;;;;;;;4.53;1.03;;;12.00;99.90;;;;;;4975445;28;20976;-77
2022/12/26 11:30:28;;;;;;;2.13;0.80;;;12.20;99.90;;;;;;4975173;28;20457;-76
2022/12/26 11:33:21;;;;;;;3.13;0.70;;;12.30;99.50;;;;;;4974375;28;20472;-77
2022/12/26 11:35:54;;;;;;;4.40;1.00;;;12.40;99.00;;;;;;4973159;28;20552;-77
2022/12/26 11:38:34;;;;;;;3.43;1.87;;;12.50;98.90;;;;;;4975858;28;20440;-77
2022/12/26 11:43:49;;;;;;;2.60;1.10;;;12.40;99.70;;;;;;4975280;28;20405;-77
2022/12/26 11:46:17;;;;;;;4.73;2.30;;;12.50;99.50;;;;;;4977094;28;20485;-77
2022/12/26 11:48:49;;;;;;;5.07;1.07;;;12.60;99.60;;;;;;4975969;28;20538;-79
2022/12/26 11:51:16;;;;;;;3.57;1.30;;;12.60;99.10;;;;;;4976791;28;20440;-78
2022/12/26 11:53:43;;;;;;;3.23;0.93;;;12.70;99.00;;;;;;4976865;28;20467;-77
2022/12/26 11:56:10;;;;;;;5.43;1.40;;;12.60;98.60;;;;;;4975094;28;20469;-77
2022/12/26 11:58:37;;;;;;;2.80;0.97;;;12.60;99.50;;;;;;4974598;28;20453;-77
2022/12/26 12:01:07;;;;;;;1.00;0.80;;;12.60;99.60;;;;;;4974725;28;20818;-77
2022/12/26 12:03:40;;;;;;;1.10;0.90;;;12.50;99.90;;;;;;4975806;28;20441;-77
2022/12/26 12:06:22;;;;;;;4.00;1.13;;;12.50;99.90;;;;;;4975004;28;20868;-78
2022/12/26 12:08:57;;;;;;;3.03;1.13;;;12.30;99.90;;;;;;4975929;28;20426;-78
2022/12/26 12:11:36;;;;;;;4.13;0.97;;;12.10;99.90;;;;;;4976788;28;20848;-78
2022/12/26 12:14:28;;;;;;;1.33;1.17;;;11.80;99.90;;;;;;4977164;28;20456;-78
2022/12/26 12:17:04;;;;;;;1.00;0.80;;;11.50;99.90;;;;;;4976437;28;20434;-79
2022/12/26 12:19:51;;;;;;;6.60;1.27;;;11.40;99.90;;;;;;4975594;28;20443;-79
2022/12/26 12:22:40;;;;;;;1.73;0.90;;;11.30;99.90;;;;;;4975353;28;20438;-78
2022/12/26 12:25:36;;;;;;;1.53;0.80;;;11.20;99.90;;;;;;4975372;28;20494;-78
2022/12/26 12:28:16;;;;;;;3.43;0.63;;;11.20;99.90;;;;;;4975039;28;20441;-78
2022/12/26 12:30:49;;;;;;;3.13;1.00;;;11.00;99.90;;;;;;4975142;28;20437;-77
2022/12/26 12:33:34;;;;;;;1.33;0.70;;;10.90;99.90;;;;;;4974700;28;20475;-78
2022/12/26 12:36:09;;;;;;;3.60;1.10;;;10.80;99.90;;;;;;4976362;28;20824;-79
2022/12/26 12:38:48;;;;;;;2.10;1.00;;;10.70;99.90;;;;;;4976355;28;20468;-79
2022/12/26 12:42:01;;;;;;;2.33;1.17;;;10.70;99.90;;;;;;4977228;28;20460;-79
2022/12/26 12:44:38;;;;;;;3.07;1.20;;;10.60;99.90;;;;;;4978647;28;20478;-78
2022/12/26 12:47:15;;;;;;;3.50;1.10;;;10.60;99.90;;;;;;4980029;28;20491;-79
2022/12/26 12:49:52;;;;;;;2.93;1.33;;;10.60;99.90;;;;;;4980604;28;20456;-80
2022/12/26 12:52:34;;;;;;;1.70;0.97;;;10.50;99.90;;;;;;4986075;28;20443;-79
2022/12/26 12:55:39;;;;;;;1.23;0.97;;;10.50;99.90;;;;;;4990889;28;20487;-79
2022/12/26 12:58:14;;;;;;;1.87;0.70;;;10.50;99.90;;;;;;4982933;28;20449;-78
2022/12/26 13:00:44;;;;;;;2.10;1.07;;;10.40;99.90;;;;;;4978895;28;20447;-78
2022/12/26 13:03:19;;;;;;;1.33;1.20;;;10.40;99.90;;;;;;4978498;28;20954;-77
2022/12/26 13:05:53;;;;;;;1.20;1.00;;;10.50;99.90;;;;;;4977776;28;21013;-77
2022/12/26 13:08:29;;;;;;;1.67;1.00;;;10.60;99.90;;;;;;4977967;28;20446;-77
2022/12/26 13:10:58;;;;;;;2.50;1.70;;;10.60;99.90;;;;;;4977871;28;20448;-78
2022/12/26 13:13:29;;;;;;;1.50;1.17;;;10.60;99.90;;;;;;4977683;28;20455;-77
2022/12/26 13:16:00;;;;;;;2.03;1.27;;;10.70;99.90;;;;;;4977980;28;20472;-77
2022/12/26 13:18:31;;;;;;;2.27;1.47;;;10.60;99.90;;;;;;4981042;28;20461;-77
2022/12/26 13:21:03;;;;;;;6.17;1.20;;;10.70;99.90;;;;;;4978568;28;20439;-77
2022/12/26 13:26:25;;;;;;;2.77;1.60;;;10.60;99.90;;;;;;4977668;28;20535;-77
2022/12/26 13:28:58;;;;;;;5.53;1.87;;;10.60;99.90;;;;;;4977236;28;20447;-77
2022/12/26 13:31:25;;;;;;;2.50;1.60;;;10.70;99.90;;;;;;4977017;28;20870;-76
2022/12/26 13:33:52;;;;;;;3.30;1.53;;;10.70;99.90;;;;;;4977488;28;20464;-76
2022/12/26 13:36:40;;;;;;;4.13;1.53;;;10.70;99.90;;;;;;4977562;28;20457;-77
2022/12/26 13:39:35;;;;;;;2.33;1.50;;;10.70;99.90;;;;;;4977140;28;20439;-76
2022/12/26 13:45:34;;;;;;;2.33;1.60;;;10.60;99.90;;;;;;4976710;28;20459;-76
2022/12/26 13:48:01;;;;;;;2.83;1.37;;;10.60;99.90;;;;;;4976878;28;20424;-77
2022/12/26 13:50:48;;;;;;;4.00;1.50;;;10.70;99.90;;;;;;4976406;28;20482;-76
2022/12/26 13:53:28;;;;;;;3.43;1.60;;;10.70;99.90;;;;;;4977403;28;20460;-76
2022/12/26 13:55:59;;;;;;;2.50;1.30;;;10.80;99.90;;;;;;4976209;28;20473;-76
2022/12/26 13:58:46;;;;;;;3.70;1.37;;;10.70;99.90;;;;;;4976596;28;20828;-76
2022/12/26 14:01:31;;;;;;;2.13;1.20;;;10.80;99.90;;;;;;4970064;28;20464;-76
2022/12/26 14:04:16;;;;;;;1.87;1.70;;;10.80;99.90;;;;;;4976422;28;20849;-76
2022/12/26 14:07:11;;;;;;;3.90;1.73;;;10.80;99.90;;;;;;4976426;28;20841;-76
2022/12/26 14:09:53;;;;;;;2.57;1.30;;;10.80;99.90;;;;;;4976417;28;20435;-76
2022/12/26 14:12:54;;;;;;;2.60;1.90;;;10.80;99.90;;;;;;4976453;28;20448;-77
2022/12/26 14:15:29;;;;;;;6.00;2.20;;;10.90;99.90;;;;;;4976354;28;20485;-77
2022/12/26 14:18:14;;;;;;;4.10;1.93;;;10.90;99.90;;;;;;4976673;28;20471;-76
2022/12/26 14:20:46;;;;;;;4.43;1.60;;;11.00;99.90;;;;;;4976417;28;20437;-76
2022/12/26 14:23:27;;;;;;;3.20;1.60;;;11.00;99.90;;;;;;4976212;28;20445;-76
2022/12/26 14:26:02;;;;;;;4.83;1.63;;;10.90;99.90;;;;;;4976309;28;20492;-77
2022/12/26 14:28:35;;;;;;;4.73;1.40;;;10.80;99.60;;;;;;4976874;28;20800;-76
2022/12/26 14:31:20;;;;;;;2.97;1.50;;;10.80;99.20;;;;;;4975858;28;20461;-76
2022/12/26 14:33:52;;;;;;;3.70;1.40;;;10.60;99.00;;;;;;4975923;28;20441;-76
2022/12/26 14:36:26;;;;;;;2.90;1.40;;;10.60;98.70;;;;;;4976017;28;20443;-76
2022/12/26 14:39:00;;;;;;;3.73;1.50;;;10.50;98.30;;;;;;4975836;28;20456;-76
2022/12/26 14:44:17;;;;;;;7.90;1.73;;;10.50;97.90;;;;;;4975787;28;21018;-76
2022/12/26 14:47:00;;;;;;;6.40;1.80;;;10.50;97.80;;;;;;4975645;28;20499;-76
2022/12/26 14:49:38;;;;;;;6.17;1.50;;;10.40;97.70;;;;;;4976015;28;20442;-76
2022/12/26 14:52:47;;;;;;;8.20;1.70;;;10.40;97.70;;;;;;4975552;28;20441;-76
2022/12/26 14:55:42;;;;;;;5.83;1.50;;;10.30;96.80;;;;;;4960830;28;20498;-76
2022/12/26 14:58:38;;;;;;;6.70;2.30;;;10.20;97.20;;;;;;4975534;28;20448;-76
2022/12/26 15:01:41;;;;;;;3.90;1.90;;;10.20;97.70;;;;;;4975074;28;20446;-76
2022/12/26 15:04:34;;;;;;;3.00;1.50;;;10.20;97.90;;;;;;4975303;28;20469;-76
2022/12/26 15:07:38;;;;;;;4.70;1.63;;;10.30;98.10;;;;;;4953933;28;20503;-76
2022/12/26 15:10:41;;;;;;;7.63;2.10;;;10.20;97.80;;;;;;4975277;28;20443;-76
2022/12/26 15:13:45;;;;;;;3.00;1.90;;;10.10;98.30;;;;;;4975388;28;20448;-76
2022/12/26 15:16:30;;;;;;;4.40;1.60;;;10.00;98.70;;;;;;4975208;28;20846;-76
2022/12/26 15:19:34;;;;;;;5.23;2.47;;;9.90;99.80;;;;;;4975127;28;20439;-76
2022/12/26 15:22:34;;;;;;;6.17;1.87;;;9.90;99.90;;;;;;4975111;28;20458;-77
2022/12/26 15:25:39;;;;;;;2.30;1.30;;;9.90;98.60;;;;;;4975211;28;20474;-77
2022/12/26 15:28:40;;;;;;;7.20;2.10;;;9.80;98.40;;;;;;4968910;28;20468;-76
2022/12/26 15:31:24;;;;;;;8.23;3.13;;;9.70;98.50;;;;;;4974875;28;20449;-76
2022/12/26 15:33:57;;;;;;;3.33;1.77;;;9.60;99.10;;;;;;4974944;28;20447;-76
2022/12/26 15:36:36;;;;;;;3.20;1.77;;;9.60;99.10;;;;;;4975110;28;20442;-76
2022/12/26 15:39:11;;;;;;;6.10;1.70;;;9.50;99.40;;;;;;4974559;28;20847;-76